sensor_id;sensor_type;location;lat;lon;timestamp;pressure;altitude;pressure_sealevel;temperature;humidity
48041;BME280;33815;48.386;11.738;2023-01-05T00:02:24;96939.13;;;8.96;100.00
48041;BME280;33815;48.386;11.738;2023-01-05T00:04:49;96948.06;;;9.03;100.00
48041;BME280;33815;48.386;11.738;2023-01-05T00:07:14;96958.16;;;8.97;100.00
48041;BME280;33815;48.386;11.738;2023-01-05T00:09:40;96948.53;;;8.87;100.00
48041;BME280;33815;48.386;11.738;2023-01-05T00:12:05;96958.78;;;8.89;100.00
48041;BME280;33815;48.386;11.738;2023-01-05T00:14:49;96923.97;;;8.70;100.00
48041;BME280;33815;48.386;11.738;2023-01-05T00:17:33;96937.97;;;8.79;100.00
48041;BME280;33815;48.386;11.738;2023-01-05T00:20:20;96942.16;;;8.70;100.00
48041;BME280;33815;48.386;11.738;2023-01-05T00:23:05;96934.91;;;8.64;100.00
48041;BME280;33815;48.386;11.738;2023-01-05T00:25:34;96948.72;;;8.65;100.00
48041;BME280;33815;48.386;11.738;2023-01-05T00:28:00;96929.94;;;8.61;100.00
48041;BME280;33815;48.386;11.738;2023-01-05T00:30:32;96916.00;;;8.62;100.00
48041;BME280;33815;48.386;11.738;2023-01-05T00:32:58;96935.13;;;8.61;100.00
48041;BME280;33815;48.386;11.738;2023-01-05T00:35:23;96936.66;;;8.64;100.00
48041;BME280;33815;48.386;11.738;2023-01-05T00:37:49;96911.66;;;8.63;100.00
48041;BME280;33815;48.386;11.738;2023-01-05T00:40:17;96909.16;;;8.61;100.00
48041;BME280;33815;48.386;11.738;2023-01-05T00:42:43;96923.25;;;8.59;100.00
48041;BME280;33815;48.386;11.738;2023-01-05T00:45:11;96928.44;;;8.59;100.00
48041;BME280;33815;48.386;11.738;2023-01-05T00:47:36;96928.06;;;8.63;100.00
48041;BME280;33815;48.386;11.738;2023-01-05T00:50:02;96915.59;;;8.57;100.00
48041;BME280;33815;48.386;11.738;2023-01-05T00:52:27;96921.91;;;8.64;100.00
48041;BME280;33815;48.386;11.738;2023-01-05T00:54:53;96910.13;;;8.60;100.00
48041;BME280;33815;48.386;11.738;2023-01-05T00:57:18;96924.13;;;8.69;100.00
48041;BME280;33815;48.386;11.738;2023-01-05T00:59:44;96902.06;;;8.63;100.00
48041;BME280;33815;48.386;11.738;2023-01-05T01:02:10;96910.81;;;8.62;100.00
48041;BME280;33815;48.386;11.738;2023-01-05T01:04:35;96908.56;;;8.48;100.00
48041;BME280;33815;48.386;11.738;2023-01-05T01:07:02;96905.25;;;8.46;100.00
48041;BME280;33815;48.386;11.738;2023-01-05T01:09:27;96910.75;;;8.52;100.00
48041;BME280;33815;48.386;11.738;2023-01-05T01:11:52;96905.56;;;8.52;100.00
48041;BME280;33815;48.386;11.738;2023-01-05T01:14:18;96903.38;;;8.48;100.00
48041;BME280;33815;48.386;11.738;2023-01-05T01:16:44;96907.53;;;8.39;100.00
48041;BME280;33815;48.386;11.738;2023-01-05T01:19:14;96890.91;;;8.30;100.00
48041;BME280;33815;48.386;11.738;2023-01-05T01:21:39;96906.31;;;8.43;100.00
48041;BME280;33815;48.386;11.738;2023-01-05T01:24:05;96908.06;;;8.43;100.00
48041;BME280;33815;48.386;11.738;2023-01-05T01:26:30;96896.81;;;8.32;100.00
48041;BME280;33815;48.386;11.738;2023-01-05T01:28:56;96898.53;;;8.43;100.00
48041;BME280;33815;48.386;11.738;2023-01-05T01:31:21;96906.31;;;8.43;100.00
48041;BME280;33815;48.386;11.738;2023-01-05T01:33:47;96872.38;;;8.35;100.00
48041;BME280;33815;48.386;11.738;2023-01-05T01:36:12;96887.50;;;8.51;100.00
48041;BME280;33815;48.386;11.738;2023-01-05T01:38:37;96880.28;;;8.54;100.00
48041;BME280;33815;48.386;11.738;2023-01-05T01:41:03;96883.34;;;8.69;100.00
48041;BME280;33815;48.386;11.738;2023-01-05T01:43:50;96877.38;;;8.79;100.00
48041;BME280;33815;48.386;11.738;2023-01-05T01:46:17;96881.19;;;8.74;100.00
48041;BME280;33815;48.386;11.738;2023-01-05T01:48:46;96873.66;;;8.71;100.00
48041;BME280;33815;48.386;11.738;2023-01-05T01:51:16;96875.84;;;8.76;100.00
48041;BME280;33815;48.386;11.738;2023-01-05T01:53:47;96856.41;;;8.70;100.00
48041;BME280;33815;48.386;11.738;2023-01-05T01:56:15;96865.56;;;8.65;100.00
48041;BME280;33815;48.386;11.738;2023-01-05T01:58:41;96850.06;;;8.53;100.00
48041;BME280;33815;48.386;11.738;2023-01-05T02:01:07;96849.13;;;8.54;100.00
48041;BME280;33815;48.386;11.738;2023-01-05T02:03:32;96852.66;;;8.53;100.00
48041;BME280;33815;48.386;11.738;2023-01-05T02:05:58;96851.44;;;8.57;100.00
48041;BME280;33815;48.386;11.738;2023-01-05T02:08:24;96836.81;;;8.56;100.00
48041;BME280;33815;48.386;11.738;2023-01-05T02:11:05;96840.78;;;8.61;100.00
48041;BME280;33815;48.386;11.738;2023-01-05T02:19:13;96824.13;;;8.63;100.00
48041;BME280;33815;48.386;11.738;2023-01-05T02:22:03;96824.97;;;8.73;100.00
48041;BME280;33815;48.386;11.738;2023-01-05T02:33:05;96788.88;;;8.80;100.00
48041;BME280;33815;48.386;11.738;2023-01-05T02:35:39;96804.91;;;8.95;100.00
48041;BME280;33815;48.386;11.738;2023-01-05T02:41:43;96784.50;;;9.00;100.00
48041;BME280;33815;48.386;11.738;2023-01-05T02:44:14;96797.50;;;9.00;100.00
48041;BME280;33815;48.386;11.738;2023-01-05T02:46:40;96769.88;;;8.89;100.00
48041;BME280;33815;48.386;11.738;2023-01-05T02:49:05;96792.88;;;9.04;100.00
48041;BME280;33815;48.386;11.738;2023-01-05T02:51:35;96776.56;;;8.92;100.00
48041;BME280;33815;48.386;11.738;2023-01-05T02:54:10;96778.22;;;9.03;100.00
48041;BME280;33815;48.386;11.738;2023-01-05T02:56:40;96789.72;;;9.10;100.00
48041;BME280;33815;48.386;11.738;2023-01-05T02:59:25;96782.34;;;9.05;100.00
48041;BME280;33815;48.386;11.738;2023-01-05T03:01:55;96783.84;;;8.98;100.00
48041;BME280;33815;48.386;11.738;2023-01-05T03:04:26;96767.28;;;8.99;100.00
48041;BME280;33815;48.386;11.738;2023-01-05T03:07:01;96785.06;;;8.94;100.00
48041;BME280;33815;48.386;11.738;2023-01-05T03:09:31;96781.66;;;8.94;100.00
48041;BME280;33815;48.386;11.738;2023-01-05T03:12:14;96779.03;;;8.84;100.00
48041;BME280;33815;48.386;11.738;2023-01-05T03:15:04;96775.19;;;8.68;100.00
48041;BME280;33815;48.386;11.738;2023-01-05T03:17:35;96765.91;;;8.76;100.00
48041;BME280;33815;48.386;11.738;2023-01-05T03:20:04;96777.38;;;8.73;100.00
48041;BME280;33815;48.386;11.738;2023-01-05T03:22:31;96777.78;;;8.68;100.00
48041;BME280;33815;48.386;11.738;2023-01-05T03:25:19;96770.28;;;8.85;100.00
48041;BME280;33815;48.386;11.738;2023-01-05T03:28:07;96767.69;;;8.95;100.00
48041;BME280;33815;48.386;11.738;2023-01-05T03:31:12;96767.69;;;8.95;100.00
48041;BME280;33815;48.386;11.738;2023-01-05T03:34:06;96768.09;;;8.90;100.00
48041;BME280;33815;48.386;11.738;2023-01-05T03:36:57;96770.41;;;8.83;100.00
48041;BME280;33815;48.386;11.738;2023-01-05T03:39:24;96770.03;;;8.88;100.00
48041;BME280;33815;48.386;11.738;2023-01-05T03:41:51;96773.59;;;8.97;100.00
48041;BME280;33815;48.386;11.738;2023-01-05T03:44:16;96752.50;;;8.80;100.00
48041;BME280;33815;48.386;11.738;2023-01-05T03:46:42;96758.00;;;8.97;100.00
48041;BME280;33815;48.386;11.738;2023-01-05T03:49:07;96748.09;;;8.81;100.00
48041;BME280;33815;48.386;11.738;2023-01-05T03:51:32;96757.44;;;8.93;100.00
48041;BME280;33815;48.386;11.738;2023-01-05T03:53:58;96751.41;;;8.83;100.00
48041;BME280;33815;48.386;11.738;2023-01-05T03:56:23;96754.69;;;8.95;100.00
48041;BME280;33815;48.386;11.738;2023-01-05T03:58:48;96758.25;;;8.94;100.00
48041;BME280;33815;48.386;11.738;2023-01-05T04:01:13;96754.53;;;8.96;100.00
48041;BME280;33815;48.386;11.738;2023-01-05T04:03:39;96765.22;;;8.93;100.00
48041;BME280;33815;48.386;11.738;2023-01-05T04:06:05;96751.41;;;8.93;100.00
48041;BME280;33815;48.386;11.738;2023-01-05T04:08:30;96742.13;;;9.00;100.00
48041;BME280;33815;48.386;11.738;2023-01-05T04:10:56;96758.25;;;8.94;100.00
48041;BME280;33815;48.386;11.738;2023-01-05T04:13:21;96749.22;;;8.88;100.00
48041;BME280;33815;48.386;11.738;2023-01-05T04:15:46;96762.78;;;9.01;100.00
48041;BME280;33815;48.386;11.738;2023-01-05T04:18:12;96762.25;;;8.98;100.00
48041;BME280;33815;48.386;11.738;2023-01-05T04:20:37;96742.91;;;8.81;100.00
48041;BME280;33815;48.386;11.738;2023-01-05T04:23:02;96744.56;;;8.82;100.00
48041;BME280;33815;48.386;11.738;2023-01-05T04:25:28;96744.25;;;8.75;100.00
48041;BME280;33815;48.386;11.738;2023-01-05T04:27:53;96716.78;;;8.72;100.00
48041;BME280;33815;48.386;11.738;2023-01-05T04:30:18;96748.50;;;8.76;100.00
48041;BME280;33815;48.386;11.738;2023-01-05T04:32:45;96714.28;;;8.61;100.00
48041;BME280;33815;48.386;11.738;2023-01-05T04:35:10;96729.78;;;8.63;100.00
48041;BME280;33815;48.386;11.738;2023-01-05T04:37:36;96716.34;;;8.57;100.00
48041;BME280;33815;48.386;11.738;2023-01-05T04:40:01;96720.19;;;8.53;100.00
48041;BME280;33815;48.386;11.738;2023-01-05T04:42:26;96730.44;;;8.55;100.00
48041;BME280;33815;48.386;11.738;2023-01-05T04:44:52;96726.47;;;8.61;100.00
48041;BME280;33815;48.386;11.738;2023-01-05T04:47:17;96718.03;;;8.68;100.00
48041;BME280;33815;48.386;11.738;2023-01-05T04:49:42;96708.69;;;8.56;100.00
48041;BME280;33815;48.386;11.738;2023-01-05T04:52:07;96725.00;;;8.78;100.00
48041;BME280;33815;48.386;11.738;2023-01-05T04:54:33;96724.19;;;8.77;100.00
48041;BME280;33815;48.386;11.738;2023-01-05T04:56:58;96736.50;;;8.95;100.00
48041;BME280;33815;48.386;11.738;2023-01-05T04:59:23;96720.50;;;8.99;100.00
48041;BME280;33815;48.386;11.738;2023-01-05T05:01:48;96729.66;;;8.94;100.00
48041;BME280;33815;48.386;11.738;2023-01-05T05:04:14;96719.28;;;8.94;100.00
48041;BME280;33815;48.386;11.738;2023-01-05T05:06:39;96720.50;;;8.99;100.00
48041;BME280;33815;48.386;11.738;2023-01-05T05:09:04;96709.25;;;8.99;100.00
48041;BME280;33815;48.386;11.738;2023-01-05T05:11:29;96719.94;;;9.05;100.00
48041;BME280;33815;48.386;11.738;2023-01-05T05:13:55;96725.69;;;9.19;100.00
48041;BME280;33815;48.386;11.738;2023-01-05T05:16:20;96734.59;;;9.16;100.00
48041;BME280;33815;48.386;11.738;2023-01-05T05:18:45;96735.41;;;9.17;100.00
48041;BME280;33815;48.386;11.738;2023-01-05T05:21:11;96711.47;;;9.03;100.00
48041;BME280;33815;48.386;11.738;2023-01-05T05:23:36;96742.66;;;9.23;100.00
48041;BME280;33815;48.386;11.738;2023-01-05T05:26:01;96746.38;;;9.20;100.00
48041;BME280;33815;48.386;11.738;2023-01-05T05:28:27;96749.34;;;9.16;100.00
48041;BME280;33815;48.386;11.738;2023-01-05T05:30:53;96748.69;;;9.04;100.00
48041;BME280;33815;48.386;11.738;2023-01-05T05:33:20;96751.81;;;8.68;100.00
48041;BME280;33815;48.386;11.738;2023-01-05T05:35:46;96744.91;;;8.48;100.00
48041;BME280;33815;48.386;11.738;2023-01-05T05:38:11;96759.50;;;8.39;100.00
48041;BME280;33815;48.386;11.738;2023-01-05T05:40:36;96747.41;;;8.28;100.00
48041;BME280;33815;48.386;11.738;2023-01-05T05:43:01;96752.22;;;8.43;100.00
48041;BME280;33815;48.386;11.738;2023-01-05T05:45:27;96759.09;;;8.44;100.00
48041;BME280;33815;48.386;11.738;2023-01-05T05:47:52;96750.66;;;8.51;100.00
48041;BME280;33815;48.386;11.738;2023-01-05T05:50:17;96759.28;;;8.52;100.00
48041;BME280;33815;48.386;11.738;2023-01-05T05:52:42;96756.25;;;8.47;100.00
48041;BME280;33815;48.386;11.738;2023-01-05T05:55:08;96777.88;;;8.67;100.00
48041;BME280;33815;48.386;11.738;2023-01-05T05:57:33;96775.69;;;8.62;100.00
48041;BME280;33815;48.386;11.738;2023-01-05T05:59:58;96778.88;;;8.76;100.00
48041;BME280;33815;48.386;11.738;2023-01-05T06:02:24;96770.00;;;8.78;100.00
48041;BME280;33815;48.386;11.738;2023-01-05T06:04:49;96780.28;;;8.89;100.00
48041;BME280;33815;48.386;11.738;2023-01-05T06:07:14;96774.38;;;8.87;100.00
48041;BME280;33815;48.386;11.738;2023-01-05T06:09:39;96779.72;;;8.96;100.00
48041;BME280;33815;48.386;11.738;2023-01-05T06:12:05;96791.09;;;9.04;100.00
48041;BME280;33815;48.386;11.738;2023-01-05T06:14:30;96794.41;;;9.06;100.00
48041;BME280;33815;48.386;11.738;2023-01-05T06:16:55;96780.53;;;8.96;100.00
48041;BME280;33815;48.386;11.738;2023-01-05T06:19:21;96780.16;;;9.01;100.00
48041;BME280;33815;48.386;11.738;2023-01-05T06:21:46;96778.78;;;8.97;100.00
48041;BME280;33815;48.386;11.738;2023-01-05T06:24:11;96773.44;;;8.88;100.00
48041;BME280;33815;48.386;11.738;2023-01-05T06:26:36;96768.63;;;8.64;100.00
48041;BME280;33815;48.386;11.738;2023-01-05T06:29:02;96776.25;;;8.56;100.00
48041;BME280;33815;48.386;11.738;2023-01-05T06:31:27;96795.53;;;8.63;100.00
48041;BME280;33815;48.386;11.738;2023-01-05T06:33:52;96804.41;;;8.61;100.00
48041;BME280;33815;48.386;11.738;2023-01-05T06:36:18;96788.94;;;8.49;100.00
48041;BME280;33815;48.386;11.738;2023-01-05T06:38:43;96798.69;;;8.57;100.00
48041;BME280;33815;48.386;11.738;2023-01-05T06:41:08;96797.84;;;8.56;100.00
48041;BME280;33815;48.386;11.738;2023-01-05T06:43:34;96799.06;;;8.52;100.00
48041;BME280;33815;48.386;11.738;2023-01-05T06:45:59;96783.94;;;8.36;100.00
48041;BME280;33815;48.386;11.738;2023-01-05T06:48:25;96791.34;;;8.41;100.00
48041;BME280;33815;48.386;11.738;2023-01-05T06:50:50;96792.03;;;8.43;100.00
48041;BME280;33815;48.386;11.738;2023-01-05T06:53:15;96796.75;;;8.59;100.00
48041;BME280;33815;48.386;11.738;2023-01-05T06:55:40;96799.91;;;8.53;100.00
48041;BME280;33815;48.386;11.738;2023-01-05T06:58:06;96802.72;;;8.50;100.00
48041;BME280;33815;48.386;11.738;2023-01-05T07:00:31;96796.19;;;8.55;100.00
48041;BME280;33815;48.386;11.738;2023-01-05T07:02:56;96787.56;;;8.45;100.00
48041;BME280;33815;48.386;11.738;2023-01-05T07:05:22;96785.88;;;8.44;100.00
48041;BME280;33815;48.386;11.738;2023-01-05T07:07:48;96803.66;;;8.39;100.00
48041;BME280;33815;48.386;11.738;2023-01-05T07:10:14;96810.31;;;8.41;100.00
48041;BME280;33815;48.386;11.738;2023-01-05T07:12:39;96806.25;;;8.39;100.00
48041;BME280;33815;48.386;11.738;2023-01-05T07:15:05;96812.81;;;8.43;100.00
48041;BME280;33815;48.386;11.738;2023-01-05T07:17:30;96814.34;;;8.46;100.00
48041;BME280;33815;48.386;11.738;2023-01-05T07:19:56;96816.50;;;8.40;100.00
48041;BME280;33815;48.386;11.738;2023-01-05T07:22:22;96814.22;;;8.47;100.00
48041;BME280;33815;48.386;11.738;2023-01-05T07:24:47;96820.41;;;8.56;100.00
48041;BME280;33815;48.386;11.738;2023-01-05T07:27:12;96828.09;;;8.67;100.00
48041;BME280;33815;48.386;11.738;2023-01-05T07:29:38;96805.78;;;8.65;100.00
48041;BME280;33815;48.386;11.738;2023-01-05T07:32:03;96827.44;;;8.75;100.00
48041;BME280;33815;48.386;11.738;2023-01-05T07:34:28;96828.91;;;8.68;100.00
48041;BME280;33815;48.386;11.738;2023-01-05T07:36:54;96840.22;;;8.88;100.00
48041;BME280;33815;48.386;11.738;2023-01-05T07:39:19;96830.63;;;8.88;100.00
48041;BME280;33815;48.386;11.738;2023-01-05T07:41:44;96828.53;;;8.82;100.00
48041;BME280;33815;48.386;11.738;2023-01-05T07:44:10;96842.50;;;8.81;100.00
48041;BME280;33815;48.386;11.738;2023-01-05T07:46:35;96832.75;;;8.73;100.00
48041;BME280;33815;48.386;11.738;2023-01-05T07:49:00;96830.19;;;8.83;100.00
48041;BME280;33815;48.386;11.738;2023-01-05T07:51:26;96849.91;;;8.86;100.00
48041;BME280;33815;48.386;11.738;2023-01-05T07:53:51;96846.72;;;8.72;100.00
48041;BME280;33815;48.386;11.738;2023-01-05T07:56:17;96854.28;;;8.85;100.00
48041;BME280;33815;48.386;11.738;2023-01-05T07:58:42;96869.59;;;8.88;100.00
48041;BME280;33815;48.386;11.738;2023-01-05T08:01:10;96862.09;;;8.85;100.00
48041;BME280;33815;48.386;11.738;2023-01-05T08:03:36;96875.06;;;8.85;100.00
48041;BME280;33815;48.386;11.738;2023-01-05T08:06:03;96880.75;;;8.69;100.00
48041;BME280;33815;48.386;11.738;2023-01-05T08:08:29;96870.44;;;8.58;100.00
48041;BME280;33815;48.386;11.738;2023-01-05T08:10:54;96877.25;;;8.49;100.00
48041;BME280;33815;48.386;11.738;2023-01-05T08:13:19;96889.22;;;8.40;100.00
48041;BME280;33815;48.386;11.738;2023-01-05T08:16:03;96879.94;;;8.17;100.00
48041;BME280;33815;48.386;11.738;2023-01-05T08:18:29;96897.44;;;8.24;100.00
48041;BME280;33815;48.386;11.738;2023-01-05T08:20:58;96910.16;;;8.18;100.00
48041;BME280;33815;48.386;11.738;2023-01-05T08:23:27;96911.97;;;8.06;100.00
48041;BME280;33815;48.386;11.738;2023-01-05T08:25:53;96915.88;;;8.00;100.00
48041;BME280;33815;48.386;11.738;2023-01-05T08:28:18;96909.44;;;7.95;100.00
48041;BME280;33815;48.386;11.738;2023-01-05T08:30:44;96913.97;;;7.81;100.00
48041;BME280;33815;48.386;11.738;2023-01-05T08:33:09;96920.53;;;7.85;100.00
48041;BME280;33815;48.386;11.738;2023-01-05T08:35:39;96921.00;;;7.91;100.00
48041;BME280;33815;48.386;11.738;2023-01-05T08:38:05;96940.81;;;7.92;100.00
48041;BME280;33815;48.386;11.738;2023-01-05T08:40:30;96945.31;;;7.89;100.00
48041;BME280;33815;48.386;11.738;2023-01-05T08:42:56;96949.00;;;7.87;100.00
48041;BME280;33815;48.386;11.738;2023-01-05T08:45:21;96945.44;;;7.88;100.00
48041;BME280;33815;48.386;11.738;2023-01-05T08:47:46;96936.13;;;7.85;100.00
48041;BME280;33815;48.386;11.738;2023-01-05T08:50:11;96947.59;;;7.83;100.00
48041;BME280;33815;48.386;11.738;2023-01-05T08:52:37;96953.00;;;7.80;100.00
48041;BME280;33815;48.386;11.738;2023-01-05T08:55:04;96969.94;;;7.95;100.00
48041;BME280;33815;48.386;11.738;2023-01-05T08:57:31;96955.59;;;7.91;100.00
48041;BME280;33815;48.386;11.738;2023-01-05T08:59:56;96971.34;;;7.99;100.00
48041;BME280;33815;48.386;11.738;2023-01-05T09:02:22;96971.09;;;8.02;100.00
48041;BME280;33815;48.386;11.738;2023-01-05T09:04:47;96957.94;;;7.94;100.00
48041;BME280;33815;48.386;11.738;2023-01-05T09:07:12;96974.38;;;8.04;100.00
48041;BME280;33815;48.386;11.738;2023-01-05T09:09:37;96951.09;;;7.93;100.00
48041;BME280;33815;48.386;11.738;2023-01-05T09:12:03;96965.78;;;8.04;100.00
48041;BME280;33815;48.386;11.738;2023-01-05T09:14:29;96966.84;;;8.01;100.00
48041;BME280;33815;48.386;11.738;2023-01-05T09:16:54;96985.03;;;8.01;100.00
48041;BME280;33815;48.386;11.738;2023-01-05T09:19:19;96983.88;;;7.94;100.00
48041;BME280;33815;48.386;11.738;2023-01-05T09:21:44;96996.22;;;8.02;100.00
48041;BME280;33815;48.386;11.738;2023-01-05T09:24:10;96992.59;;;7.93;100.00
48041;BME280;33815;48.386;11.738;2023-01-05T09:26:36;96995.41;;;8.01;100.00
48041;BME280;33815;48.386;11.738;2023-01-05T09:29:02;97006.00;;;8.10;100.00
48041;BME280;33815;48.386;11.738;2023-01-05T09:31:27;96989.34;;;8.12;100.00
48041;BME280;33815;48.386;11.738;2023-01-05T09:33:52;97008.59;;;8.10;100.00
48041;BME280;33815;48.386;11.738;2023-01-05T09:36:18;97011.44;;;8.06;100.00
48041;BME280;33815;48.386;11.738;2023-01-05T09:38:50;97017.00;;;8.02;100.00
48041;BME280;33815;48.386;11.738;2023-01-05T09:41:20;97026.31;;;8.04;100.00
48041;BME280;33815;48.386;11.738;2023-01-05T09:43:48;97033.88;;;7.96;100.00
48041;BME280;33815;48.386;11.738;2023-01-05T09:46:20;97032.34;;;7.94;100.00
48041;BME280;33815;48.386;11.738;2023-01-05T09:48:49;97036.50;;;7.85;100.00
48041;BME280;33815;48.386;11.738;2023-01-05T09:51:16;97041.22;;;7.91;100.00
48041;BME280;33815;48.386;11.738;2023-01-05T09:53:42;97041.00;;;7.83;100.00
48041;BME280;33815;48.386;11.738;2023-01-05T09:56:40;97041.56;;;7.86;100.00
48041;BME280;33815;48.386;11.738;2023-01-05T09:59:21;97038.53;;;7.81;100.00
48041;BME280;33815;48.386;11.738;2023-01-05T10:01:50;97049.00;;;7.80;100.00
48041;BME280;33815;48.386;11.738;2023-01-05T10:04:20;97039.81;;;7.87;100.00
48041;BME280;33815;48.386;11.738;2023-01-05T10:06:49;97046.78;;;7.86;100.00
48041;BME280;33815;48.386;11.738;2023-01-05T10:09:21;97046.91;;;7.85;100.00
48041;BME280;33815;48.386;11.738;2023-01-05T10:11:56;97048.81;;;7.83;100.00
48041;BME280;33815;48.386;11.738;2023-01-05T10:15:00;97049.25;;;7.77;100.00
48041;BME280;33815;48.386;11.738;2023-01-05T10:17:32;97059.66;;;7.77;100.00
48041;BME280;33815;48.386;11.738;2023-01-05T10:19:58;97046.91;;;7.74;100.00
48041;BME280;33815;48.386;11.738;2023-01-05T10:22:41;97057.03;;;7.77;100.00
48041;BME280;33815;48.386;11.738;2023-01-05T10:25:52;97058.34;;;7.71;100.00
48041;BME280;33815;48.386;11.738;2023-01-05T10:28:36;97053.28;;;7.69;100.00
48041;BME280;33815;48.386;11.738;2023-01-05T10:31:24;97047.66;;;7.53;100.00
48041;BME280;33815;48.386;11.738;2023-01-05T10:34:13;97063.31;;;7.63;100.00
48041;BME280;33815;48.386;11.738;2023-01-05T10:39:47;97070.03;;;7.65;100.00
48041;BME280;33815;48.386;11.738;2023-01-05T10:42:28;97063.91;;;7.66;100.00
48041;BME280;33815;48.386;11.738;2023-01-05T10:45:01;97058.25;;;7.50;100.00
48041;BME280;33815;48.386;11.738;2023-01-05T10:47:30;97066.50;;;7.66;100.00
48041;BME280;33815;48.386;11.738;2023-01-05T10:49:59;97055.09;;;7.58;100.00
48041;BME280;33815;48.386;11.738;2023-01-05T10:52:26;97060.41;;;7.56;100.00
48041;BME280;33815;48.386;11.738;2023-01-05T10:54:59;97054.72;;;7.62;100.00
48041;BME280;33815;48.386;11.738;2023-01-05T11:00:19;97054.13;;;7.59;100.00
48041;BME280;33815;48.386;11.738;2023-01-05T11:02:49;97051.63;;;7.68;100.00
48041;BME280;33815;48.386;11.738;2023-01-05T11:05:31;97041.88;;;7.49;100.00
48041;BME280;33815;48.386;11.738;2023-01-05T11:08:00;97057.56;;;7.59;100.00
48041;BME280;33815;48.386;11.738;2023-01-05T11:10:40;97060.16;;;7.59;100.00
48041;BME280;33815;48.386;11.738;2023-01-05T11:15:42;97048.38;;;7.55;100.00
48041;BME280;33815;48.386;11.738;2023-01-05T11:18:32;97064.25;;;7.50;100.00
48041;BME280;33815;48.386;11.738;2023-01-05T11:21:16;97049.06;;;7.46;100.00
48041;BME280;33815;48.386;11.738;2023-01-05T11:23:44;97055.44;;;7.53;100.00
48041;BME280;33815;48.386;11.738;2023-01-05T11:31:52;97048.22;;;8.12;100.00
48041;BME280;33815;48.386;11.738;2023-01-05T11:34:34;97048.06;;;8.24;100.00
48041;BME280;33815;48.386;11.738;2023-01-05T11:37:03;97048.44;;;8.20;100.00
48041;BME280;33815;48.386;11.738;2023-01-05T11:39:46;97041.13;;;8.25;100.00
48041;BME280;33815;48.386;11.738;2023-01-05T11:42:16;97037.75;;;8.34;100.00
48041;BME280;33815;48.386;11.738;2023-01-05T11:47:23;97044.72;;;8.34;100.00
48041;BME280;33815;48.386;11.738;2023-01-05T11:49:57;97030.69;;;8.36;100.00
48041;BME280;33815;48.386;11.738;2023-01-05T11:52:32;97040.81;;;8.39;100.00
48041;BME280;33815;48.386;11.738;2023-01-05T11:55:19;97032.53;;;8.46;100.00
48041;BME280;33815;48.386;11.738;2023-01-05T11:57:47;97031.97;;;8.63;100.00
48041;BME280;33815;48.386;11.738;2023-01-05T12:00:27;97034.00;;;8.60;100.00
48041;BME280;33815;48.386;11.738;2023-01-05T12:05:56;97030.59;;;8.59;100.00
48041;BME280;33815;48.386;11.738;2023-01-05T12:08:29;97030.47;;;8.61;100.00
48041;BME280;33815;48.386;11.738;2023-01-05T12:16:19;97031.34;;;8.50;100.00
48041;BME280;33815;48.386;11.738;2023-01-05T12:19:00;97037.63;;;8.47;100.00
48041;BME280;33815;48.386;11.738;2023-01-05T12:21:36;97035.84;;;8.48;100.00
48041;BME280;33815;48.386;11.738;2023-01-05T12:30:29;97022.84;;;8.48;100.00
48041;BME280;33815;48.386;11.738;2023-01-05T12:36:00;97018.84;;;8.44;100.00
48041;BME280;33815;48.386;11.738;2023-01-05T12:38:35;97024.25;;;8.52;100.00
48041;BME280;33815;48.386;11.738;2023-01-05T12:41:15;97034.50;;;8.53;100.00
48041;BME280;33815;48.386;11.738;2023-01-05T12:49:22;97041.03;;;8.48;100.00
48041;BME280;33815;48.386;11.738;2023-01-05T12:51:56;97037.94;;;8.43;100.00
48041;BME280;33815;48.386;11.738;2023-01-05T12:54:39;97042.94;;;8.46;100.00
48041;BME280;33815;48.386;11.738;2023-01-05T12:57:11;97041.03;;;8.48;100.00
48041;BME280;33815;48.386;11.738;2023-01-05T13:02:34;97038.34;;;8.38;100.00
48041;BME280;33815;48.386;11.738;2023-01-05T13:08:04;97038.00;;;8.31;100.00
48041;BME280;33815;48.386;11.738;2023-01-05T13:10:44;97034.44;;;8.11;100.00
48041;BME280;33815;48.386;11.738;2023-01-05T13:13:16;97032.78;;;8.10;100.00
48041;BME280;33815;48.386;11.738;2023-01-05T13:18:29;97028.91;;;8.04;100.00
48041;BME280;33815;48.386;11.738;2023-01-05T13:20:58;97054.38;;;8.11;100.00
48041;BME280;33815;48.386;11.738;2023-01-05T13:23:30;97035.88;;;8.04;100.00
48041;BME280;33815;48.386;11.738;2023-01-05T13:26:10;97055.38;;;8.31;100.00
48041;BME280;33815;48.386;11.738;2023-01-05T13:28:37;97051.13;;;8.30;100.00
48041;BME280;33815;48.386;11.738;2023-01-05T13:31:23;97054.75;;;8.38;100.00
48041;BME280;33815;48.386;11.738;2023-01-05T13:39:38;97058.59;;;8.55;100.00
48041;BME280;33815;48.386;11.738;2023-01-05T13:44:58;97062.38;;;8.51;100.00
48041;BME280;33815;48.386;11.738;2023-01-05T13:47:52;97064.16;;;8.51;100.00
48041;BME280;33815;48.386;11.738;2023-01-05T13:53:16;97073.56;;;8.63;100.00
48041;BME280;33815;48.386;11.738;2023-01-05T13:55:47;97054.28;;;8.45;100.00
48041;BME280;33815;48.386;11.738;2023-01-05T13:58:32;97058.72;;;8.54;100.00
48041;BME280;33815;48.386;11.738;2023-01-05T14:01:01;97073.88;;;8.49;100.00
48041;BME280;33815;48.386;11.738;2023-01-05T14:03:31;97073.88;;;8.49;100.00
48041;BME280;33815;48.386;11.738;2023-01-05T14:06:01;97069.88;;;8.45;100.00
48041;BME280;33815;48.386;11.738;2023-01-05T14:08:31;97051.06;;;8.41;100.00
48041;BME280;33815;48.386;11.738;2023-01-05T14:11:16;97073.38;;;8.44;100.00
48041;BME280;33815;48.386;11.738;2023-01-05T14:13:44;97074.81;;;8.36;100.00
48041;BME280;33815;48.386;11.738;2023-01-05T14:19:20;97075.38;;;8.40;100.00
48041;BME280;33815;48.386;11.738;2023-01-05T14:32:16;97083.94;;;8.31;100.00
48041;BME280;33815;48.386;11.738;2023-01-05T14:34:49;97063.41;;;8.28;100.00